createdAt,value
2023-03-02T00:02:01.746Z,79.70
2023-03-02T00:04:46.367Z,80.09
2023-03-02T00:07:16.884Z,78.71
2023-03-02T00:09:44.543Z,79.32
2023-03-02T00:12:11.717Z,78.97
2023-03-02T00:14:38.165Z,79.57
2023-03-02T00:17:05.295Z,78.29
2023-03-02T00:19:31.721Z,78.66
2023-03-02T00:21:58.136Z,78.23
2023-03-02T00:24:24.559Z,79.45
2023-03-02T00:26:50.944Z,77.78
2023-03-02T00:29:17.417Z,77.99
2023-03-02T00:31:43.959Z,79.26
2023-03-02T00:34:10.397Z,79.40
2023-03-02T00:36:36.807Z,79.20
2023-03-02T00:39:04.475Z,78.95
2023-03-02T00:41:30.873Z,78.48
2023-03-02T00:43:57.256Z,78.44
2023-03-02T00:46:25.176Z,78.44
2023-03-02T00:48:52.742Z,78.65
2023-03-02T00:51:19.568Z,78.21
2023-03-02T00:53:46.475Z,79.92
2023-03-02T00:56:13.204Z,80.02
2023-03-02T00:58:44.754Z,78.65
2023-03-02T01:01:13.493Z,79.44
2023-03-02T01:03:44.766Z,78.86
2023-03-02T01:06:19.911Z,79.19
2023-03-02T01:08:46.507Z,78.99
2023-03-02T01:11:18.219Z,80.07
2023-03-02T01:13:45.692Z,81.13
2023-03-02T01:16:12.656Z,80.93
2023-03-02T01:18:39.790Z,80.97
2023-03-02T01:21:09.533Z,81.53
2023-03-02T01:23:35.957Z,82.35
2023-03-02T01:26:03.121Z,82.24
2023-03-02T01:28:29.517Z,82.35
2023-03-02T01:30:55.967Z,82.60
2023-03-02T01:33:22.829Z,82.39
2023-03-02T01:35:49.593Z,81.29
2023-03-02T01:38:16.088Z,81.85
2023-03-02T01:40:43.601Z,81.57
2023-03-02T01:43:13.500Z,80.96
2023-03-02T01:45:53.108Z,80.78
2023-03-02T01:48:31.617Z,80.52
2023-03-02T01:50:58.705Z,80.08
2023-03-02T01:53:29.240Z,79.53
2023-03-02T01:55:57.135Z,80.08
2023-03-02T01:58:25.872Z,80.83
2023-03-02T02:00:54.559Z,80.88
2023-03-02T02:03:24.862Z,80.90
2023-03-02T02:06:08.972Z,81.13
2023-03-02T02:08:36.503Z,81.09
2023-03-02T02:11:03.306Z,81.02
2023-03-02T02:13:30.266Z,80.36
2023-03-02T02:15:56.665Z,80.61
2023-03-02T02:18:23.734Z,80.88
2023-03-02T02:20:54.000Z,81.54
2023-03-02T02:23:34.362Z,82.24
2023-03-02T02:26:29.210Z,83.59
2023-03-02T02:29:00.502Z,83.49
2023-03-02T02:31:35.241Z,83.33
2023-03-02T02:34:13.816Z,82.93
2023-03-02T02:36:43.439Z,81.58
2023-03-02T02:39:21.238Z,81.13
2023-03-02T02:41:50.852Z,80.61
2023-03-02T02:44:19.187Z,80.45
2023-03-02T02:46:45.861Z,80.18
2023-03-02T02:49:29.033Z,79.78
2023-03-02T02:51:55.469Z,80.11
2023-03-02T02:54:23.005Z,80.54
2023-03-02T02:56:50.984Z,81.24
2023-03-02T02:59:22.645Z,80.95
2023-03-02T03:01:50.688Z,81.06
2023-03-02T03:04:24.341Z,81.90
2023-03-02T03:06:56.631Z,82.38
2023-03-02T03:09:23.941Z,82.57
2023-03-02T03:11:52.759Z,82.62
2023-03-02T03:14:22.450Z,82.11
2023-03-02T03:16:51.781Z,81.37
2023-03-02T03:19:24.170Z,81.53
2023-03-02T03:21:55.200Z,80.98
2023-03-02T03:24:25.090Z,80.63
2023-03-02T03:26:54.167Z,81.45
2023-03-02T03:29:24.079Z,80.69
2023-03-02T03:31:53.359Z,81.78
2023-03-02T03:34:21.237Z,81.84
2023-03-02T03:36:47.962Z,81.46
2023-03-02T03:39:16.152Z,80.95
2023-03-02T03:41:43.511Z,80.85
2023-03-02T03:44:11.267Z,80.22
2023-03-02T03:46:40.229Z,79.77
2023-03-02T03:49:06.807Z,80.41
2023-03-02T03:51:35.296Z,80.11
2023-03-02T03:54:05.305Z,80.14
2023-03-02T03:56:39.165Z,81.13
2023-03-02T03:59:08.051Z,83.02
2023-03-02T04:01:47.177Z,81.83
2023-03-02T04:04:24.531Z,81.23
2023-03-02T04:06:51.527Z,81.04
2023-03-02T04:09:19.179Z,81.69
2023-03-02T04:11:48.860Z,82.67
2023-03-02T04:14:16.909Z,82.65
2023-03-02T04:16:44.385Z,83.31
2023-03-02T04:19:12.825Z,83.36
2023-03-02T04:21:45.005Z,82.98
2023-03-02T04:24:13.261Z,82.67
2023-03-02T04:26:42.044Z,82.51
2023-03-02T04:29:10.259Z,81.27
2023-03-02T04:31:38.467Z,81.31
2023-03-02T04:34:05.863Z,82.17
2023-03-02T04:36:35.671Z,81.96
2023-03-02T04:39:05.318Z,81.45
2023-03-02T04:41:32.568Z,80.73
2023-03-02T04:43:59.088Z,81.90
2023-03-02T04:46:27.112Z,81.25
2023-03-02T04:48:54.328Z,81.18
2023-03-02T04:51:25.081Z,80.67
2023-03-02T04:53:57.731Z,81.89
2023-03-02T04:56:24.280Z,82.46
2023-03-02T04:58:50.769Z,82.38
2023-03-02T05:01:18.658Z,81.76
2023-03-02T05:03:45.872Z,81.56
2023-03-02T05:06:12.725Z,81.82
2023-03-02T05:08:39.763Z,82.82
2023-03-02T05:11:07.828Z,82.76
2023-03-02T05:13:35.277Z,82.31
2023-03-02T05:16:01.815Z,82.22
2023-03-02T05:18:28.289Z,82.22
2023-03-02T05:20:55.254Z,81.25
2023-03-02T05:23:27.045Z,81.51
2023-03-02T05:25:55.679Z,82.19
2023-03-02T05:28:24.552Z,82.23
2023-03-02T05:30:51.562Z,82.30
2023-03-02T05:33:19.157Z,83.26
2023-03-02T05:35:46.142Z,83.09
2023-03-02T05:38:13.212Z,82.56
2023-03-02T05:40:40.277Z,83.13
2023-03-02T05:43:07.293Z,82.52
2023-03-02T05:45:37.172Z,81.70
2023-03-02T05:48:04.775Z,81.56
2023-03-02T05:50:31.892Z,82.67
2023-03-02T05:53:00.119Z,83.20
2023-03-02T05:55:26.624Z,82.81
2023-03-02T05:57:53.167Z,82.61
2023-03-02T06:00:20.641Z,82.51
2023-03-02T06:02:47.645Z,83.82
2023-03-02T06:05:17.026Z,82.45
2023-03-02T06:07:44.319Z,83.33
2023-03-02T06:10:12.503Z,82.89
2023-03-02T06:12:39.251Z,81.90
2023-03-02T06:15:07.188Z,82.42
2023-03-02T06:17:46.024Z,82.61
2023-03-02T06:20:13.213Z,83.48
2023-03-02T06:22:42.055Z,82.99
2023-03-02T06:25:10.352Z,83.35
2023-03-02T06:27:38.877Z,84.76
2023-03-02T06:30:08.762Z,86.61
2023-03-02T06:32:35.547Z,86.10
2023-03-02T06:35:03.184Z,87.92
2023-03-02T06:37:30.062Z,89.46
2023-03-02T06:39:57.423Z,90.25
2023-03-02T06:42:25.118Z,91.03
2023-03-02T06:44:51.785Z,91.41
2023-03-02T06:47:18.698Z,93.95
2023-03-02T06:49:45.133Z,94.61
2023-03-02T06:52:13.518Z,95.52
2023-03-02T06:54:40.549Z,97.49
2023-03-02T06:57:07.529Z,98.84
2023-03-02T06:59:34.780Z,99.33
2023-03-02T07:02:01.352Z,100.00
2023-03-02T07:04:30.444Z,99.64
2023-03-02T07:06:57.072Z,99.69
2023-03-02T07:09:23.582Z,100.00
2023-03-02T07:11:49.977Z,100.00
2023-03-02T07:14:16.353Z,100.00
2023-03-02T07:16:42.800Z,100.00
2023-03-02T07:19:13.891Z,100.00
2023-03-02T07:21:40.338Z,100.00
2023-03-02T07:24:07.483Z,100.00
2023-03-02T07:26:33.956Z,100.00
2023-03-02T07:29:00.905Z,100.00
2023-03-02T07:31:27.890Z,100.00
2023-03-02T07:33:54.411Z,100.00
2023-03-02T07:36:21.008Z,100.00
2023-03-02T07:38:48.555Z,100.00
2023-03-02T07:41:16.683Z,100.00
2023-03-02T07:43:43.349Z,100.00
2023-03-02T07:46:09.785Z,100.00
2023-03-02T07:48:36.213Z,100.00
2023-03-02T07:51:05.031Z,100.00
2023-03-02T07:53:31.551Z,100.00
2023-03-02T07:55:58.100Z,100.00
2023-03-02T07:58:24.531Z,100.00
2023-03-02T08:00:51.082Z,100.00
2023-03-02T08:03:17.513Z,100.00
2023-03-02T08:05:43.915Z,100.00
2023-03-02T08:08:10.340Z,100.00
2023-03-02T08:10:37.050Z,100.00
2023-03-02T08:13:03.870Z,100.00
2023-03-02T08:15:30.323Z,100.00
2023-03-02T08:17:56.728Z,100.00
2023-03-02T08:20:23.265Z,100.00
2023-03-02T08:22:50.105Z,100.00
2023-03-02T08:25:16.540Z,100.00
2023-03-02T08:27:44.132Z,100.00
2023-03-02T08:30:10.991Z,100.00
2023-03-02T08:32:37.462Z,100.00
2023-03-02T08:35:04.785Z,100.00
2023-03-02T08:37:31.440Z,100.00
2023-03-02T08:39:58.886Z,100.00
2023-03-02T08:42:25.364Z,100.00
2023-03-02T08:44:51.760Z,100.00
2023-03-02T08:47:18.155Z,100.00
2023-03-02T08:49:45.569Z,100.00
2023-03-02T08:52:15.203Z,100.00
2023-03-02T08:54:41.644Z,100.00
2023-03-02T08:57:11.530Z,100.00
2023-03-02T08:59:37.969Z,100.00
2023-03-02T09:02:04.352Z,100.00
2023-03-02T09:04:30.846Z,100.00
2023-03-02T09:06:57.272Z,100.00
2023-03-02T09:09:23.695Z,100.00
2023-03-02T09:11:50.123Z,100.00
2023-03-02T09:14:16.659Z,100.00
2023-03-02T09:16:43.173Z,100.00
2023-03-02T09:19:11.594Z,100.00
2023-03-02T09:21:37.990Z,100.00
2023-03-02T09:24:04.647Z,100.00
2023-03-02T09:26:31.065Z,100.00
2023-03-02T09:28:57.618Z,100.00
2023-03-02T09:31:24.071Z,100.00
2023-03-02T09:33:50.503Z,100.00
2023-03-02T09:36:22.944Z,100.00
2023-03-02T09:38:49.600Z,100.00
2023-03-02T09:41:18.721Z,100.00
2023-03-02T09:44:03.296Z,100.00
2023-03-02T09:46:54.307Z,100.00
2023-03-02T09:49:55.478Z,100.00
2023-03-02T09:52:31.589Z,100.00
2023-03-02T09:55:06.819Z,100.00
2023-03-02T09:57:38.463Z,100.00
2023-03-02T10:00:19.553Z,100.00
2023-03-02T10:02:48.319Z,100.00
2023-03-02T10:05:22.867Z,100.00
2023-03-02T10:07:49.628Z,100.00
2023-03-02T10:10:29.169Z,100.00
2023-03-02T10:13:25.058Z,100.00
2023-03-02T10:16:03.353Z,100.00
2023-03-02T10:18:43.768Z,100.00
2023-03-02T10:21:25.213Z,100.00
2023-03-02T10:23:56.222Z,100.00
2023-03-02T10:26:42.844Z,100.00
2023-03-02T10:29:43.076Z,100.00
2023-03-02T10:32:22.710Z,100.00
2023-03-02T10:34:53.446Z,100.00
2023-03-02T10:37:25.046Z,100.00
2023-03-02T10:39:52.742Z,100.00
2023-03-02T10:42:37.577Z,100.00
2023-03-02T10:45:27.695Z,100.00
2023-03-02T10:48:01.174Z,100.00
2023-03-02T10:50:27.562Z,100.00
2023-03-02T10:53:00.138Z,100.00
2023-03-02T10:55:27.438Z,100.00
2023-03-02T10:58:06.994Z,100.00
2023-03-02T11:00:34.862Z,100.00
2023-03-02T11:03:05.801Z,100.00
2023-03-02T11:05:37.848Z,100.00
2023-03-02T11:08:09.281Z,100.00
2023-03-02T11:10:55.764Z,100.00
2023-03-02T11:13:36.928Z,100.00
2023-03-02T11:16:21.740Z,99.60
2023-03-02T11:19:13.682Z,99.49
2023-03-02T11:21:47.423Z,99.24
2023-03-02T11:24:40.170Z,98.82
2023-03-02T11:27:13.547Z,97.42
2023-03-02T11:29:58.686Z,96.32
2023-03-02T11:32:34.547Z,96.66
2023-03-02T11:35:12.217Z,96.14
2023-03-02T11:37:52.180Z,95.87
2023-03-02T11:40:23.700Z,95.84
2023-03-02T11:42:51.202Z,95.05
2023-03-02T11:45:22.460Z,94.59
2023-03-02T11:48:02.627Z,94.00
2023-03-02T11:50:34.381Z,93.00
2023-03-02T11:53:06.172Z,92.67
2023-03-02T11:55:39.847Z,91.59
2023-03-02T11:58:07.341Z,91.70
2023-03-02T12:00:37.278Z,91.21
2023-03-02T12:03:20.756Z,91.15
2023-03-02T12:06:05.328Z,90.91
2023-03-02T12:08:37.922Z,90.13
2023-03-02T12:11:18.487Z,91.99
2023-03-02T12:13:54.267Z,92.23
2023-03-02T12:16:42.059Z,93.55
2023-03-02T12:19:41.390Z,92.41
2023-03-02T12:22:12.219Z,92.74
2023-03-02T12:24:41.873Z,92.59
2023-03-02T12:27:20.739Z,91.42
2023-03-02T12:29:51.451Z,90.97
2023-03-02T12:32:20.948Z,90.35
2023-03-02T12:34:54.962Z,90.44
2023-03-02T12:37:46.994Z,89.73
2023-03-02T12:40:33.795Z,89.19
2023-03-02T12:43:24.690Z,89.94
2023-03-02T12:46:13.617Z,90.26
2023-03-02T12:49:03.346Z,89.16
2023-03-02T12:51:43.216Z,88.10
2023-03-02T12:54:16.452Z,88.11
2023-03-02T12:56:43.562Z,88.53
2023-03-02T12:59:25.740Z,87.50
2023-03-02T13:01:52.286Z,87.26
2023-03-02T13:04:24.198Z,86.07
2023-03-02T13:06:51.186Z,85.51
2023-03-02T13:09:20.249Z,86.75
2023-03-02T13:11:48.848Z,85.43
2023-03-02T13:14:21.134Z,85.68
2023-03-02T13:17:25.024Z,85.00
2023-03-02T13:19:52.621Z,85.32
2023-03-02T13:22:20.550Z,84.55
2023-03-02T13:24:51.672Z,85.12
2023-03-02T13:27:22.523Z,83.41
2023-03-02T13:29:49.664Z,84.27
2023-03-02T13:32:17.973Z,84.67
2023-03-02T13:34:53.555Z,84.42
2023-03-02T13:37:33.878Z,83.33
2023-03-02T13:40:07.244Z,82.30
2023-03-02T13:42:40.080Z,83.27
2023-03-02T13:45:22.381Z,81.83
2023-03-02T13:47:48.837Z,82.38
2023-03-02T13:50:20.583Z,82.07
2023-03-02T13:52:48.106Z,82.10
2023-03-02T13:55:17.369Z,83.18
2023-03-02T13:57:45.883Z,82.46
2023-03-02T14:00:22.046Z,84.13
2023-03-02T14:02:50.394Z,82.88
2023-03-02T14:05:19.113Z,83.27
2023-03-02T14:07:46.443Z,83.11
2023-03-02T14:10:17.779Z,83.12
2023-03-02T14:12:54.143Z,83.36
2023-03-02T14:15:20.710Z,84.14
2023-03-02T14:17:49.122Z,83.85
2023-03-02T14:20:19.243Z,83.75
2023-03-02T14:22:46.688Z,84.91
2023-03-02T14:25:13.683Z,85.36
2023-03-02T14:27:41.301Z,85.74
2023-03-02T14:30:19.951Z,84.67
2023-03-02T14:32:46.678Z,85.88
2023-03-02T14:35:16.465Z,85.77
2023-03-02T14:37:46.960Z,86.20
2023-03-02T14:40:20.956Z,86.42
2023-03-02T14:42:48.454Z,84.28
2023-03-02T14:45:14.849Z,85.74
2023-03-02T14:47:41.241Z,86.54
2023-03-02T14:50:09.090Z,86.44
2023-03-02T14:52:39.965Z,86.64
2023-03-02T14:55:23.633Z,86.77
2023-03-02T14:57:54.633Z,85.87
2023-03-02T15:00:21.618Z,86.59
2023-03-02T15:02:48.333Z,88.05
2023-03-02T15:05:14.965Z,87.15
2023-03-02T15:07:41.442Z,86.77
2023-03-02T15:10:12.450Z,88.70
2023-03-02T15:12:38.773Z,89.59
2023-03-02T15:15:05.473Z,88.10
2023-03-02T15:17:31.935Z,87.74
2023-03-02T15:19:58.323Z,87.48
2023-03-02T15:22:24.889Z,87.25
2023-03-02T15:24:51.320Z,87.98
2023-03-02T15:27:18.530Z,88.59
2023-03-02T15:29:46.229Z,88.54
2023-03-02T15:32:13.371Z,89.81
2023-03-02T15:34:40.169Z,89.60
2023-03-02T15:37:06.866Z,88.93
2023-03-02T15:39:34.003Z,90.26
2023-03-02T15:42:01.088Z,90.45
2023-03-02T15:44:29.578Z,91.04
2023-03-02T15:46:58.382Z,92.46
2023-03-02T15:49:27.958Z,91.97
2023-03-02T15:51:57.593Z,91.71
2023-03-02T15:54:28.005Z,91.86
2023-03-02T15:56:54.505Z,92.96
2023-03-02T15:59:26.533Z,93.40
2023-03-02T16:01:53.560Z,92.49
2023-03-02T16:04:20.282Z,92.95
2023-03-02T16:06:46.700Z,93.73
2023-03-02T16:09:13.131Z,93.52
2023-03-02T16:11:39.580Z,92.06
2023-03-02T16:14:06.072Z,91.25
2023-03-02T16:16:32.930Z,92.22
2023-03-02T16:18:59.459Z,92.78
2023-03-02T16:21:28.328Z,93.88
2023-03-02T16:23:56.323Z,92.48
2023-03-02T16:26:22.892Z,94.26
2023-03-02T16:28:49.324Z,94.13
2023-03-02T16:31:18.739Z,94.35
2023-03-02T16:33:46.129Z,93.56
2023-03-02T16:36:14.346Z,94.82
2023-03-02T16:38:41.444Z,94.21
2023-03-02T16:41:14.346Z,95.64
2023-03-02T16:43:46.980Z,95.08
2023-03-02T16:46:13.673Z,94.51
2023-03-02T16:48:40.233Z,95.30
2023-03-02T16:51:06.739Z,94.37
2023-03-02T16:53:33.400Z,94.13
2023-03-02T16:55:59.922Z,94.98
2023-03-02T16:58:26.404Z,95.06
2023-03-02T17:00:53.130Z,95.66
2023-03-02T17:03:19.686Z,96.71
2023-03-02T17:05:46.134Z,97.00
2023-03-02T17:08:14.382Z,99.80
2023-03-02T17:10:41.703Z,98.44
2023-03-02T17:13:08.340Z,98.91
2023-03-02T17:15:34.851Z,99.12
2023-03-02T17:18:01.309Z,99.10
2023-03-02T17:20:27.827Z,100.00
2023-03-02T17:22:54.637Z,100.00
2023-03-02T17:25:21.727Z,100.00
2023-03-02T17:27:48.108Z,100.00
2023-03-02T17:30:15.661Z,100.00
2023-03-02T17:32:42.278Z,100.00
2023-03-02T17:35:11.281Z,100.00
2023-03-02T17:37:38.098Z,100.00
2023-03-02T17:40:06.614Z,100.00
2023-03-02T17:42:33.113Z,100.00
2023-03-02T17:44:59.515Z,100.00
2023-03-02T17:47:26.077Z,100.00
2023-03-02T17:49:52.488Z,100.00
2023-03-02T17:52:19.280Z,100.00
2023-03-02T17:54:46.092Z,100.00
2023-03-02T17:57:13.336Z,100.00
2023-03-02T17:59:39.731Z,100.00
2023-03-02T18:02:06.128Z,100.00
2023-03-02T18:04:32.562Z,100.00
2023-03-02T18:06:59.018Z,100.00
2023-03-02T18:09:25.432Z,100.00
2023-03-02T18:11:52.033Z,100.00
2023-03-02T18:14:20.273Z,100.00
2023-03-02T18:16:47.875Z,100.00
2023-03-02T18:19:14.417Z,100.00
2023-03-02T18:21:41.763Z,100.00
2023-03-02T18:24:09.352Z,100.00
2023-03-02T18:26:35.797Z,100.00
2023-03-02T18:29:02.324Z,100.00
2023-03-02T18:31:28.992Z,100.00
2023-03-02T18:33:55.449Z,100.00
2023-03-02T18:36:21.897Z,100.00
2023-03-02T18:38:48.329Z,100.00
2023-03-02T18:41:17.385Z,100.00
2023-03-02T18:43:43.889Z,100.00
2023-03-02T18:46:25.482Z,100.00
2023-03-02T18:48:52.907Z,100.00
2023-03-02T18:51:20.872Z,100.00
2023-03-02T18:53:47.768Z,100.00
2023-03-02T18:56:14.585Z,100.00
2023-03-02T18:58:41.682Z,100.00
2023-03-02T19:01:09.064Z,100.00
2023-03-02T19:03:37.025Z,100.00
2023-03-02T19:06:04.085Z,100.00
2023-03-02T19:08:30.758Z,100.00
2023-03-02T19:10:57.243Z,100.00
2023-03-02T19:13:23.931Z,100.00
2023-03-02T19:15:54.150Z,100.00
2023-03-02T19:18:23.431Z,100.00
2023-03-02T19:20:51.472Z,100.00
2023-03-02T19:23:18.025Z,100.00
2023-03-02T19:25:45.805Z,100.00
2023-03-02T19:28:12.550Z,100.00
2023-03-02T19:30:40.086Z,100.00
2023-03-02T19:33:07.330Z,100.00
2023-03-02T19:35:34.123Z,100.00
2023-03-02T19:38:01.189Z,100.00
2023-03-02T19:40:30.200Z,100.00
2023-03-02T19:42:57.165Z,100.00
2023-03-02T19:45:28.569Z,100.00
2023-03-02T19:47:59.513Z,100.00
2023-03-02T19:50:27.032Z,100.00
2023-03-02T19:52:55.053Z,100.00
2023-03-02T19:55:22.430Z,100.00
2023-03-02T19:57:56.517Z,100.00
2023-03-02T20:00:23.834Z,100.00
2023-03-02T20:02:50.294Z,100.00
2023-03-02T20:05:17.295Z,100.00
2023-03-02T20:07:44.137Z,100.00
2023-03-02T20:10:11.410Z,100.00
2023-03-02T20:12:37.844Z,100.00
2023-03-02T20:15:06.001Z,100.00
2023-03-02T20:17:32.496Z,100.00
2023-03-02T20:20:01.156Z,100.00
2023-03-02T20:22:27.616Z,100.00
2023-03-02T20:24:54.042Z,100.00
2023-03-02T20:27:21.202Z,100.00
2023-03-02T20:29:48.212Z,100.00
2023-03-02T20:32:16.187Z,100.00
2023-03-02T20:34:43.345Z,100.00
2023-03-02T20:37:13.633Z,100.00
2023-03-02T20:39:42.207Z,100.00
2023-03-02T20:42:09.262Z,100.00
2023-03-02T20:44:36.055Z,100.00
2023-03-02T20:47:08.210Z,100.00
2023-03-02T20:49:35.763Z,100.00
2023-03-02T20:52:02.843Z,100.00
2023-03-02T20:54:34.422Z,100.00
2023-03-02T20:57:01.023Z,100.00
2023-03-02T20:59:28.451Z,100.00
2023-03-02T21:01:54.858Z,100.00
2023-03-02T21:04:21.554Z,100.00
2023-03-02T21:06:48.178Z,100.00
2023-03-02T21:09:15.055Z,100.00
2023-03-02T21:11:41.486Z,100.00
2023-03-02T21:14:08.268Z,100.00
2023-03-02T21:16:37.964Z,100.00
2023-03-02T21:19:08.598Z,100.00
2023-03-02T21:21:41.317Z,100.00
2023-03-02T21:24:09.898Z,100.00
2023-03-02T21:26:36.853Z,100.00
2023-03-02T21:29:05.184Z,100.00
2023-03-02T21:31:31.730Z,100.00
2023-03-02T21:33:58.233Z,100.00
2023-03-02T21:36:26.558Z,100.00
2023-03-02T21:38:53.065Z,100.00
2023-03-02T21:41:20.089Z,100.00
2023-03-02T21:43:47.677Z,100.00
2023-03-02T21:46:16.752Z,100.00
2023-03-02T21:48:43.683Z,100.00
2023-03-02T21:51:12.262Z,100.00
2023-03-02T21:53:38.721Z,100.00
2023-03-02T21:56:05.944Z,100.00
2023-03-02T21:58:32.429Z,100.00
2023-03-02T22:00:58.840Z,100.00
2023-03-02T22:03:25.327Z,100.00
2023-03-02T22:05:51.920Z,100.00
2023-03-02T22:08:20.694Z,100.00
2023-03-02T22:10:51.273Z,100.00
2023-03-02T22:13:26.693Z,100.00
2023-03-02T22:16:13.495Z,100.00
2023-03-02T22:18:40.549Z,100.00
2023-03-02T22:21:29.879Z,100.00
2023-03-02T22:24:10.503Z,100.00
2023-03-02T22:26:56.909Z,100.00
2023-03-02T22:29:26.410Z,100.00
2023-03-02T22:31:55.663Z,100.00
2023-03-02T22:34:28.967Z,100.00
2023-03-02T22:36:58.777Z,100.00
2023-03-02T22:39:31.564Z,100.00
2023-03-02T22:42:01.610Z,100.00
2023-03-02T22:44:28.073Z,100.00
2023-03-02T22:46:56.579Z,100.00
2023-03-02T22:49:23.092Z,100.00
2023-03-02T22:51:49.510Z,100.00
2023-03-02T22:54:24.275Z,100.00
2023-03-02T22:56:52.700Z,100.00
2023-03-02T22:59:24.288Z,100.00
2023-03-02T23:01:52.773Z,100.00
2023-03-02T23:04:20.606Z,100.00
2023-03-02T23:06:54.157Z,100.00
2023-03-02T23:09:32.319Z,100.00
2023-03-02T23:12:01.918Z,100.00
2023-03-02T23:14:49.857Z,100.00
2023-03-02T23:17:23.861Z,100.00
2023-03-02T23:19:51.328Z,100.00
2023-03-02T23:22:18.218Z,100.00
2023-03-02T23:24:44.930Z,100.00
2023-03-02T23:27:11.628Z,100.00
2023-03-02T23:29:38.257Z,100.00
2023-03-02T23:32:04.855Z,100.00
2023-03-02T23:34:31.372Z,100.00
2023-03-02T23:36:58.655Z,100.00
2023-03-02T23:39:25.935Z,100.00
2023-03-02T23:41:52.949Z,100.00
2023-03-02T23:44:19.505Z,100.00
2023-03-02T23:46:47.343Z,100.00
2023-03-02T23:49:14.126Z,100.00
2023-03-02T23:51:40.872Z,100.00
2023-03-02T23:54:07.903Z,100.00
2023-03-02T23:56:34.319Z,100.00
2023-03-02T23:59:02.141Z,100.00
